sensor_id;sensor_type;location;lat;lon;timestamp;temperature;humidity
4874;DHT22;2451;49.970;9.068;2024-02-15T00:00:25;10.20;99.90
4874;DHT22;2451;49.970;9.068;2024-02-15T00:02:52;10.20;99.90
4874;DHT22;2451;49.970;9.068;2024-02-15T00:05:17;10.20;99.90
4874;DHT22;2451;49.970;9.068;2024-02-15T00:07:43;10.20;99.90
4874;DHT22;2451;49.970;9.068;2024-02-15T00:10:09;10.20;99.90
4874;DHT22;2451;49.970;9.068;2024-02-15T00:12:35;10.20;99.90
4874;DHT22;2451;49.970;9.068;2024-02-15T00:15:01;10.20;99.90
4874;DHT22;2451;49.970;9.068;2024-02-15T00:17:27;10.20;99.90
4874;DHT22;2451;49.970;9.068;2024-02-15T00:19:54;10.20;99.90
4874;DHT22;2451;49.970;9.068;2024-02-15T00:22:20;10.20;99.90
4874;DHT22;2451;49.970;9.068;2024-02-15T00:24:46;10.20;99.90
4874;DHT22;2451;49.970;9.068;2024-02-15T00:27:17;10.20;99.90
4874;DHT22;2451;49.970;9.068;2024-02-15T00:29:42;10.20;99.90
4874;DHT22;2451;49.970;9.068;2024-02-15T00:32:09;10.20;99.90
4874;DHT22;2451;49.970;9.068;2024-02-15T00:34:36;10.20;99.90
4874;DHT22;2451;49.970;9.068;2024-02-15T00:37:04;10.20;99.90
4874;DHT22;2451;49.970;9.068;2024-02-15T00:39:30;10.10;99.90
4874;DHT22;2451;49.970;9.068;2024-02-15T00:41:57;10.10;99.90
4874;DHT22;2451;49.970;9.068;2024-02-15T00:44:22;10.10;99.90
4874;DHT22;2451;49.970;9.068;2024-02-15T00:46:48;10.10;99.90
4874;DHT22;2451;49.970;9.068;2024-02-15T00:49:13;10.10;99.90
4874;DHT22;2451;49.970;9.068;2024-02-15T00:51:39;10.10;99.90
4874;DHT22;2451;49.970;9.068;2024-02-15T00:54:05;10.10;99.90
4874;DHT22;2451;49.970;9.068;2024-02-15T00:56:31;10.10;99.90
4874;DHT22;2451;49.970;9.068;2024-02-15T00:58:59;10.10;99.90
4874;DHT22;2451;49.970;9.068;2024-02-15T01:01:26;10.10;99.90
4874;DHT22;2451;49.970;9.068;2024-02-15T01:03:51;10.10;99.90
4874;DHT22;2451;49.970;9.068;2024-02-15T01:06:17;10.10;99.90
4874;DHT22;2451;49.970;9.068;2024-02-15T01:08:42;10.10;99.90
4874;DHT22;2451;49.970;9.068;2024-02-15T01:11:08;10.10;99.90
4874;DHT22;2451;49.970;9.068;2024-02-15T01:13:35;10.20;99.90
4874;DHT22;2451;49.970;9.068;2024-02-15T01:16:00;10.10;99.90
4874;DHT22;2451;49.970;9.068;2024-02-15T01:18:28;10.20;99.90
4874;DHT22;2451;49.970;9.068;2024-02-15T01:20:55;10.20;99.90
4874;DHT22;2451;49.970;9.068;2024-02-15T01:23:21;10.10;99.90
4874;DHT22;2451;49.970;9.068;2024-02-15T01:25:47;10.10;99.90
4874;DHT22;2451;49.970;9.068;2024-02-15T01:28:13;10.10;99.90
4874;DHT22;2451;49.970;9.068;2024-02-15T01:30:38;10.10;99.90
4874;DHT22;2451;49.970;9.068;2024-02-15T01:33:04;10.10;99.90
4874;DHT22;2451;49.970;9.068;2024-02-15T01:35:30;10.10;99.90
4874;DHT22;2451;49.970;9.068;2024-02-15T01:37:55;10.10;99.90
4874;DHT22;2451;49.970;9.068;2024-02-15T01:40:21;10.10;99.90
4874;DHT22;2451;49.970;9.068;2024-02-15T01:42:47;10.10;99.90
4874;DHT22;2451;49.970;9.068;2024-02-15T01:45:15;10.00;99.90
4874;DHT22;2451;49.970;9.068;2024-02-15T01:47:41;10.00;99.90
4874;DHT22;2451;49.970;9.068;2024-02-15T01:50:10;10.00;99.90
4874;DHT22;2451;49.970;9.068;2024-02-15T01:52:36;10.00;99.90
4874;DHT22;2451;49.970;9.068;2024-02-15T01:55:03;10.00;99.90
4874;DHT22;2451;49.970;9.068;2024-02-15T01:57:34;9.90;99.90
4874;DHT22;2451;49.970;9.068;2024-02-15T02:00:01;9.90;99.90
4874;DHT22;2451;49.970;9.068;2024-02-15T02:02:31;9.90;99.90
4874;DHT22;2451;49.970;9.068;2024-02-15T02:04:58;9.90;99.90
4874;DHT22;2451;49.970;9.068;2024-02-15T02:07:23;9.90;99.90
4874;DHT22;2451;49.970;9.068;2024-02-15T02:09:49;9.90;99.90
4874;DHT22;2451;49.970;9.068;2024-02-15T02:12:15;9.90;99.90
4874;DHT22;2451;49.970;9.068;2024-02-15T02:14:40;9.90;99.90
4874;DHT22;2451;49.970;9.068;2024-02-15T02:17:15;9.90;99.90
4874;DHT22;2451;49.970;9.068;2024-02-15T02:19:42;9.90;99.90
4874;DHT22;2451;49.970;9.068;2024-02-15T02:22:09;9.90;99.90
4874;DHT22;2451;49.970;9.068;2024-02-15T02:24:40;9.90;99.90
4874;DHT22;2451;49.970;9.068;2024-02-15T02:27:07;9.90;99.90
4874;DHT22;2451;49.970;9.068;2024-02-15T02:29:33;9.90;99.90
4874;DHT22;2451;49.970;9.068;2024-02-15T02:31:59;9.90;99.90
4874;DHT22;2451;49.970;9.068;2024-02-15T02:34:25;9.90;99.90
4874;DHT22;2451;49.970;9.068;2024-02-15T02:36:50;9.80;99.90
4874;DHT22;2451;49.970;9.068;2024-02-15T02:39:16;9.80;99.90
4874;DHT22;2451;49.970;9.068;2024-02-15T02:41:42;9.80;99.90
4874;DHT22;2451;49.970;9.068;2024-02-15T02:44:08;9.80;99.90
4874;DHT22;2451;49.970;9.068;2024-02-15T02:46:34;9.80;99.90
4874;DHT22;2451;49.970;9.068;2024-02-15T02:49:00;9.80;99.90
4874;DHT22;2451;49.970;9.068;2024-02-15T02:51:25;9.80;99.90
4874;DHT22;2451;49.970;9.068;2024-02-15T02:53:51;9.80;99.90
4874;DHT22;2451;49.970;9.068;2024-02-15T02:56:16;9.80;99.90
4874;DHT22;2451;49.970;9.068;2024-02-15T02:58:43;9.80;99.90
4874;DHT22;2451;49.970;9.068;2024-02-15T03:01:10;9.80;99.90
4874;DHT22;2451;49.970;9.068;2024-02-15T03:03:36;9.80;99.90
4874;DHT22;2451;49.970;9.068;2024-02-15T03:06:01;9.80;99.90
4874;DHT22;2451;49.970;9.068;2024-02-15T03:08:27;9.70;99.90
4874;DHT22;2451;49.970;9.068;2024-02-15T03:10:53;9.80;99.90
4874;DHT22;2451;49.970;9.068;2024-02-15T03:13:18;9.80;99.90
4874;DHT22;2451;49.970;9.068;2024-02-15T03:15:46;9.70;99.90
4874;DHT22;2451;49.970;9.068;2024-02-15T03:18:16;9.70;99.90
4874;DHT22;2451;49.970;9.068;2024-02-15T03:20:42;9.70;99.90
4874;DHT22;2451;49.970;9.068;2024-02-15T03:23:09;9.70;99.90
4874;DHT22;2451;49.970;9.068;2024-02-15T03:25:34;9.70;99.90
4874;DHT22;2451;49.970;9.068;2024-02-15T03:28:00;9.70;99.90
4874;DHT22;2451;49.970;9.068;2024-02-15T03:30:31;9.70;99.90
4874;DHT22;2451;49.970;9.068;2024-02-15T03:32:57;9.70;99.90
4874;DHT22;2451;49.970;9.068;2024-02-15T03:35:25;9.70;99.90
4874;DHT22;2451;49.970;9.068;2024-02-15T03:37:51;9.70;99.90
4874;DHT22;2451;49.970;9.068;2024-02-15T03:40:17;9.70;99.90
4874;DHT22;2451;49.970;9.068;2024-02-15T03:42:43;9.70;99.90
4874;DHT22;2451;49.970;9.068;2024-02-15T03:45:09;9.70;99.90
4874;DHT22;2451;49.970;9.068;2024-02-15T03:47:36;9.70;99.90
4874;DHT22;2451;49.970;9.068;2024-02-15T03:50:02;9.70;99.90
4874;DHT22;2451;49.970;9.068;2024-02-15T03:52:28;9.70;99.90
4874;DHT22;2451;49.970;9.068;2024-02-15T03:54:55;9.70;99.90
4874;DHT22;2451;49.970;9.068;2024-02-15T03:57:25;9.70;99.90
4874;DHT22;2451;49.970;9.068;2024-02-15T03:59:51;9.70;99.90
4874;DHT22;2451;49.970;9.068;2024-02-15T04:02:21;9.60;99.90
4874;DHT22;2451;49.970;9.068;2024-02-15T04:04:49;9.70;99.90
4874;DHT22;2451;49.970;9.068;2024-02-15T04:07:18;9.70;99.90
4874;DHT22;2451;49.970;9.068;2024-02-15T04:09:47;9.70;99.90
4874;DHT22;2451;49.970;9.068;2024-02-15T04:12:13;9.70;99.90
4874;DHT22;2451;49.970;9.068;2024-02-15T04:14:40;9.70;99.90
4874;DHT22;2451;49.970;9.068;2024-02-15T04:17:06;9.70;99.90
4874;DHT22;2451;49.970;9.068;2024-02-15T04:19:32;9.70;99.90
4874;DHT22;2451;49.970;9.068;2024-02-15T04:21:58;9.70;99.90
4874;DHT22;2451;49.970;9.068;2024-02-15T04:24:25;9.70;99.90
4874;DHT22;2451;49.970;9.068;2024-02-15T04:26:51;9.70;99.90
4874;DHT22;2451;49.970;9.068;2024-02-15T04:29:16;9.70;99.90
4874;DHT22;2451;49.970;9.068;2024-02-15T04:31:43;9.70;99.90
4874;DHT22;2451;49.970;9.068;2024-02-15T04:34:08;9.70;99.90
4874;DHT22;2451;49.970;9.068;2024-02-15T04:36:35;9.70;99.90
4874;DHT22;2451;49.970;9.068;2024-02-15T04:39:01;9.70;99.90
4874;DHT22;2451;49.970;9.068;2024-02-15T04:41:28;9.70;99.90
4874;DHT22;2451;49.970;9.068;2024-02-15T04:43:54;9.70;99.90
4874;DHT22;2451;49.970;9.068;2024-02-15T04:46:20;9.70;99.90
4874;DHT22;2451;49.970;9.068;2024-02-15T04:48:48;9.70;99.90
4874;DHT22;2451;49.970;9.068;2024-02-15T04:51:17;9.70;99.90
4874;DHT22;2451;49.970;9.068;2024-02-15T04:53:46;9.60;99.90
4874;DHT22;2451;49.970;9.068;2024-02-15T04:56:12;9.70;99.90
4874;DHT22;2451;49.970;9.068;2024-02-15T04:58:41;9.60;99.90
4874;DHT22;2451;49.970;9.068;2024-02-15T05:01:14;9.60;99.90
4874;DHT22;2451;49.970;9.068;2024-02-15T05:03:40;9.60;99.90
4874;DHT22;2451;49.970;9.068;2024-02-15T05:06:05;9.60;99.90
4874;DHT22;2451;49.970;9.068;2024-02-15T05:08:33;9.60;99.90
4874;DHT22;2451;49.970;9.068;2024-02-15T05:11:00;9.70;99.90
4874;DHT22;2451;49.970;9.068;2024-02-15T05:13:25;9.70;99.90
4874;DHT22;2451;49.970;9.068;2024-02-15T05:15:51;9.70;99.90
4874;DHT22;2451;49.970;9.068;2024-02-15T05:18:16;9.60;99.90
4874;DHT22;2451;49.970;9.068;2024-02-15T05:20:42;9.60;99.90
4874;DHT22;2451;49.970;9.068;2024-02-15T05:23:08;9.60;99.90
4874;DHT22;2451;49.970;9.068;2024-02-15T05:25:34;9.60;99.90
4874;DHT22;2451;49.970;9.068;2024-02-15T05:28:01;9.60;99.90
4874;DHT22;2451;49.970;9.068;2024-02-15T05:30:26;9.60;99.90
4874;DHT22;2451;49.970;9.068;2024-02-15T05:32:52;9.60;99.90
4874;DHT22;2451;49.970;9.068;2024-02-15T05:35:18;9.60;99.90
4874;DHT22;2451;49.970;9.068;2024-02-15T05:37:44;9.60;99.90
4874;DHT22;2451;49.970;9.068;2024-02-15T05:40:10;9.60;99.90
4874;DHT22;2451;49.970;9.068;2024-02-15T05:42:42;9.60;99.90
4874;DHT22;2451;49.970;9.068;2024-02-15T05:45:28;9.60;99.90
4874;DHT22;2451;49.970;9.068;2024-02-15T05:47:59;9.60;99.90
4874;DHT22;2451;49.970;9.068;2024-02-15T05:50:25;9.60;99.90
4874;DHT22;2451;49.970;9.068;2024-02-15T05:52:53;9.60;99.90
4874;DHT22;2451;49.970;9.068;2024-02-15T05:55:20;9.60;99.90
4874;DHT22;2451;49.970;9.068;2024-02-15T05:57:46;9.60;99.90
4874;DHT22;2451;49.970;9.068;2024-02-15T06:00:12;9.60;99.90
4874;DHT22;2451;49.970;9.068;2024-02-15T06:02:38;9.60;99.90
4874;DHT22;2451;49.970;9.068;2024-02-15T06:05:04;9.60;99.90
4874;DHT22;2451;49.970;9.068;2024-02-15T06:07:30;9.60;99.90
4874;DHT22;2451;49.970;9.068;2024-02-15T06:09:59;9.60;99.90
4874;DHT22;2451;49.970;9.068;2024-02-15T06:12:28;9.60;99.90
4874;DHT22;2451;49.970;9.068;2024-02-15T06:14:54;9.60;99.90
4874;DHT22;2451;49.970;9.068;2024-02-15T06:17:19;9.60;99.90
4874;DHT22;2451;49.970;9.068;2024-02-15T06:19:45;9.60;99.90
4874;DHT22;2451;49.970;9.068;2024-02-15T06:22:10;9.60;99.90
4874;DHT22;2451;49.970;9.068;2024-02-15T06:24:38;9.60;99.90
4874;DHT22;2451;49.970;9.068;2024-02-15T06:27:05;9.60;99.90
4874;DHT22;2451;49.970;9.068;2024-02-15T06:29:31;9.60;99.90
4874;DHT22;2451;49.970;9.068;2024-02-15T06:32:15;9.60;99.90
4874;DHT22;2451;49.970;9.068;2024-02-15T06:34:59;9.60;99.90
4874;DHT22;2451;49.970;9.068;2024-02-15T06:37:43;9.60;99.90
4874;DHT22;2451;49.970;9.068;2024-02-15T06:40:27;9.60;99.90
4874;DHT22;2451;49.970;9.068;2024-02-15T06:42:54;9.60;99.90
4874;DHT22;2451;49.970;9.068;2024-02-15T06:45:19;9.60;99.90
4874;DHT22;2451;49.970;9.068;2024-02-15T06:47:45;9.60;99.90
4874;DHT22;2451;49.970;9.068;2024-02-15T06:50:12;9.60;99.90
4874;DHT22;2451;49.970;9.068;2024-02-15T06:52:39;9.70;99.90
4874;DHT22;2451;49.970;9.068;2024-02-15T06:55:07;9.70;99.90
4874;DHT22;2451;49.970;9.068;2024-02-15T06:57:34;9.70;99.90
4874;DHT22;2451;49.970;9.068;2024-02-15T07:00:03;9.70;99.90
4874;DHT22;2451;49.970;9.068;2024-02-15T07:02:29;9.70;99.90
4874;DHT22;2451;49.970;9.068;2024-02-15T07:04:55;9.80;99.90
4874;DHT22;2451;49.970;9.068;2024-02-15T07:07:20;9.80;99.90
4874;DHT22;2451;49.970;9.068;2024-02-15T07:09:47;9.80;99.90
4874;DHT22;2451;49.970;9.068;2024-02-15T07:12:12;9.80;99.90
4874;DHT22;2451;49.970;9.068;2024-02-15T07:14:38;9.80;99.90
4874;DHT22;2451;49.970;9.068;2024-02-15T07:17:03;9.80;99.90
4874;DHT22;2451;49.970;9.068;2024-02-15T07:19:29;9.90;99.90
4874;DHT22;2451;49.970;9.068;2024-02-15T07:21:58;9.90;99.90
4874;DHT22;2451;49.970;9.068;2024-02-15T07:24:24;9.90;99.90
4874;DHT22;2451;49.970;9.068;2024-02-15T07:26:52;9.90;99.90
4874;DHT22;2451;49.970;9.068;2024-02-15T07:29:21;9.90;99.90
4874;DHT22;2451;49.970;9.068;2024-02-15T07:31:49;10.00;99.90
4874;DHT22;2451;49.970;9.068;2024-02-15T07:34:14;10.00;99.90
4874;DHT22;2451;49.970;9.068;2024-02-15T07:36:40;10.00;99.90
4874;DHT22;2451;49.970;9.068;2024-02-15T07:39:07;10.00;99.90
4874;DHT22;2451;49.970;9.068;2024-02-15T07:41:38;10.10;99.90
4874;DHT22;2451;49.970;9.068;2024-02-15T07:44:03;10.10;99.90
4874;DHT22;2451;49.970;9.068;2024-02-15T07:46:29;10.10;99.90
4874;DHT22;2451;49.970;9.068;2024-02-15T07:48:55;10.10;99.90
4874;DHT22;2451;49.970;9.068;2024-02-15T07:51:22;10.20;99.90
4874;DHT22;2451;49.970;9.068;2024-02-15T07:53:48;10.20;99.90
4874;DHT22;2451;49.970;9.068;2024-02-15T07:56:16;10.20;99.90
4874;DHT22;2451;49.970;9.068;2024-02-15T07:58:46;10.20;99.90
4874;DHT22;2451;49.970;9.068;2024-02-15T08:01:15;10.20;99.90
4874;DHT22;2451;49.970;9.068;2024-02-15T08:03:41;10.30;99.90
4874;DHT22;2451;49.970;9.068;2024-02-15T08:06:11;10.30;99.90
4874;DHT22;2451;49.970;9.068;2024-02-15T08:08:39;10.40;99.90
4874;DHT22;2451;49.970;9.068;2024-02-15T08:11:07;10.40;99.90
4874;DHT22;2451;49.970;9.068;2024-02-15T08:13:46;10.40;99.90
4874;DHT22;2451;49.970;9.068;2024-02-15T08:16:15;10.50;99.90
4874;DHT22;2451;49.970;9.068;2024-02-15T08:18:44;10.60;99.90
4874;DHT22;2451;49.970;9.068;2024-02-15T08:21:11;10.60;99.90
4874;DHT22;2451;49.970;9.068;2024-02-15T08:23:37;10.60;99.90
4874;DHT22;2451;49.970;9.068;2024-02-15T08:26:03;10.70;99.90
4874;DHT22;2451;49.970;9.068;2024-02-15T08:28:29;10.70;99.90
4874;DHT22;2451;49.970;9.068;2024-02-15T08:30:55;10.80;99.90
4874;DHT22;2451;49.970;9.068;2024-02-15T08:33:23;10.80;99.90
4874;DHT22;2451;49.970;9.068;2024-02-15T08:35:49;10.80;99.90
4874;DHT22;2451;49.970;9.068;2024-02-15T08:38:14;10.80;99.90
4874;DHT22;2451;49.970;9.068;2024-02-15T08:40:40;10.90;99.90
4874;DHT22;2451;49.970;9.068;2024-02-15T08:43:06;10.90;99.90
4874;DHT22;2451;49.970;9.068;2024-02-15T08:45:31;11.00;99.90
4874;DHT22;2451;49.970;9.068;2024-02-15T08:47:57;11.00;99.90
4874;DHT22;2451;49.970;9.068;2024-02-15T08:50:22;11.00;99.90
4874;DHT22;2451;49.970;9.068;2024-02-15T08:52:49;11.10;99.90
4874;DHT22;2451;49.970;9.068;2024-02-15T08:55:15;11.10;99.90
4874;DHT22;2451;49.970;9.068;2024-02-15T08:57:43;11.20;99.90
4874;DHT22;2451;49.970;9.068;2024-02-15T09:00:10;11.20;99.90
4874;DHT22;2451;49.970;9.068;2024-02-15T09:02:44;11.20;99.90
4874;DHT22;2451;49.970;9.068;2024-02-15T09:05:10;11.30;99.90
4874;DHT22;2451;49.970;9.068;2024-02-15T09:07:40;11.30;99.90
4874;DHT22;2451;49.970;9.068;2024-02-15T09:10:07;11.40;99.90
4874;DHT22;2451;49.970;9.068;2024-02-15T09:12:35;11.40;99.90
4874;DHT22;2451;49.970;9.068;2024-02-15T09:15:03;11.50;99.90
4874;DHT22;2451;49.970;9.068;2024-02-15T09:17:29;11.50;99.90
4874;DHT22;2451;49.970;9.068;2024-02-15T09:19:59;11.60;99.90
4874;DHT22;2451;49.970;9.068;2024-02-15T09:22:25;11.70;99.90
4874;DHT22;2451;49.970;9.068;2024-02-15T09:24:53;11.70;99.90
4874;DHT22;2451;49.970;9.068;2024-02-15T09:27:19;11.80;99.90
4874;DHT22;2451;49.970;9.068;2024-02-15T09:29:44;11.80;99.90
4874;DHT22;2451;49.970;9.068;2024-02-15T09:32:10;11.90;99.90
4874;DHT22;2451;49.970;9.068;2024-02-15T09:34:36;12.00;99.90
4874;DHT22;2451;49.970;9.068;2024-02-15T09:37:01;12.00;99.90
4874;DHT22;2451;49.970;9.068;2024-02-15T09:39:27;12.10;99.90
4874;DHT22;2451;49.970;9.068;2024-02-15T09:41:53;12.10;99.90
4874;DHT22;2451;49.970;9.068;2024-02-15T09:44:24;12.20;99.90
4874;DHT22;2451;49.970;9.068;2024-02-15T09:47:02;12.30;99.90
4874;DHT22;2451;49.970;9.068;2024-02-15T09:49:29;12.40;99.90
4874;DHT22;2451;49.970;9.068;2024-02-15T09:51:56;12.40;99.90
4874;DHT22;2451;49.970;9.068;2024-02-15T09:54:25;12.50;99.90
4874;DHT22;2451;49.970;9.068;2024-02-15T09:56:51;12.60;99.90
4874;DHT22;2451;49.970;9.068;2024-02-15T09:59:18;12.60;99.90
4874;DHT22;2451;49.970;9.068;2024-02-15T10:01:47;12.70;99.90
4874;DHT22;2451;49.970;9.068;2024-02-15T10:04:13;12.90;99.90
4874;DHT22;2451;49.970;9.068;2024-02-15T10:06:42;12.90;99.90
4874;DHT22;2451;49.970;9.068;2024-02-15T10:09:27;13.00;99.90
4874;DHT22;2451;49.970;9.068;2024-02-15T10:11:57;13.00;99.90
4874;DHT22;2451;49.970;9.068;2024-02-15T10:14:24;13.10;99.90
4874;DHT22;2451;49.970;9.068;2024-02-15T10:16:51;13.20;99.90
4874;DHT22;2451;49.970;9.068;2024-02-15T10:19:18;13.30;99.90
4874;DHT22;2451;49.970;9.068;2024-02-15T10:21:46;13.30;99.90
4874;DHT22;2451;49.970;9.068;2024-02-15T10:24:11;13.40;99.90
4874;DHT22;2451;49.970;9.068;2024-02-15T10:26:37;13.50;99.90
4874;DHT22;2451;49.970;9.068;2024-02-15T10:29:12;13.50;99.90
4874;DHT22;2451;49.970;9.068;2024-02-15T10:31:51;13.60;99.90
4874;DHT22;2451;49.970;9.068;2024-02-15T10:34:18;13.70;99.90
4874;DHT22;2451;49.970;9.068;2024-02-15T10:36:44;13.80;99.90
4874;DHT22;2451;49.970;9.068;2024-02-15T10:39:17;14.00;99.90
4874;DHT22;2451;49.970;9.068;2024-02-15T10:41:54;14.20;99.90
4874;DHT22;2451;49.970;9.068;2024-02-15T10:44:21;14.40;99.90
4874;DHT22;2451;49.970;9.068;2024-02-15T10:46:52;14.70;99.90
4874;DHT22;2451;49.970;9.068;2024-02-15T10:49:22;15.00;99.90
4874;DHT22;2451;49.970;9.068;2024-02-15T10:51:51;15.30;99.90
4874;DHT22;2451;49.970;9.068;2024-02-15T10:54:19;15.60;99.90
4874;DHT22;2451;49.970;9.068;2024-02-15T10:56:49;15.70;99.90
4874;DHT22;2451;49.970;9.068;2024-02-15T10:59:24;15.80;99.90
4874;DHT22;2451;49.970;9.068;2024-02-15T11:01:59;16.20;99.90
4874;DHT22;2451;49.970;9.068;2024-02-15T11:04:27;16.50;99.90
4874;DHT22;2451;49.970;9.068;2024-02-15T11:06:58;16.80;99.90
4874;DHT22;2451;49.970;9.068;2024-02-15T11:09:27;17.00;99.90
4874;DHT22;2451;49.970;9.068;2024-02-15T11:11:54;17.10;99.90
4874;DHT22;2451;49.970;9.068;2024-02-15T11:14:28;17.30;99.90
4874;DHT22;2451;49.970;9.068;2024-02-15T11:16:55;17.30;99.90
4874;DHT22;2451;49.970;9.068;2024-02-15T11:19:43;17.40;99.90
4874;DHT22;2451;49.970;9.068;2024-02-15T11:22:15;17.50;99.90
4874;DHT22;2451;49.970;9.068;2024-02-15T11:24:52;17.50;99.90
4874;DHT22;2451;49.970;9.068;2024-02-15T11:27:28;17.30;99.90
4874;DHT22;2451;49.970;9.068;2024-02-15T11:29:57;17.20;99.90
4874;DHT22;2451;49.970;9.068;2024-02-15T11:32:45;17.10;99.90
4874;DHT22;2451;49.970;9.068;2024-02-15T11:35:18;17.00;99.90
4874;DHT22;2451;49.970;9.068;2024-02-15T11:40:21;17.60;99.90
4874;DHT22;2451;49.970;9.068;2024-02-15T11:45:20;18.50;99.90
4874;DHT22;2451;49.970;9.068;2024-02-15T11:47:50;18.80;99.90
4874;DHT22;2451;49.970;9.068;2024-02-15T11:50:20;19.10;99.90
4874;DHT22;2451;49.970;9.068;2024-02-15T11:52:49;19.40;99.90
4874;DHT22;2451;49.970;9.068;2024-02-15T11:55:20;19.50;99.90
4874;DHT22;2451;49.970;9.068;2024-02-15T11:57:56;19.60;99.90
4874;DHT22;2451;49.970;9.068;2024-02-15T12:00:31;19.70;99.90
4874;DHT22;2451;49.970;9.068;2024-02-15T12:03:16;19.70;99.90
4874;DHT22;2451;49.970;9.068;2024-02-15T12:06:01;19.60;99.90
4874;DHT22;2451;49.970;9.068;2024-02-15T12:08:49;19.60;99.90
4874;DHT22;2451;49.970;9.068;2024-02-15T12:11:34;19.80;99.90
4874;DHT22;2451;49.970;9.068;2024-02-15T12:14:19;20.10;99.90
4874;DHT22;2451;49.970;9.068;2024-02-15T12:17:07;20.50;99.90
4874;DHT22;2451;49.970;9.068;2024-02-15T12:19:53;20.80;99.90
4874;DHT22;2451;49.970;9.068;2024-02-15T12:22:37;20.80;99.90
4874;DHT22;2451;49.970;9.068;2024-02-15T12:25:14;20.30;99.90
4874;DHT22;2451;49.970;9.068;2024-02-15T12:27:46;20.10;99.90
4874;DHT22;2451;49.970;9.068;2024-02-15T12:30:18;19.90;99.90
4874;DHT22;2451;49.970;9.068;2024-02-15T12:32:47;19.80;99.90
4874;DHT22;2451;49.970;9.068;2024-02-15T12:35:16;19.70;99.90
4874;DHT22;2451;49.970;9.068;2024-02-15T12:40:31;19.60;99.90
4874;DHT22;2451;49.970;9.068;2024-02-15T12:43:00;19.50;99.90
4874;DHT22;2451;49.970;9.068;2024-02-15T12:45:26;19.30;99.90
4874;DHT22;2451;49.970;9.068;2024-02-15T12:47:54;19.20;99.90
4874;DHT22;2451;49.970;9.068;2024-02-15T12:50:23;19.20;99.90
4874;DHT22;2451;49.970;9.068;2024-02-15T12:52:49;19.30;99.90
4874;DHT22;2451;49.970;9.068;2024-02-15T12:55:20;19.30;99.90
4874;DHT22;2451;49.970;9.068;2024-02-15T12:57:48;19.20;99.90
4874;DHT22;2451;49.970;9.068;2024-02-15T13:00:23;19.00;99.90
4874;DHT22;2451;49.970;9.068;2024-02-15T13:02:54;18.90;99.90
4874;DHT22;2451;49.970;9.068;2024-02-15T13:05:22;18.80;99.90
4874;DHT22;2451;49.970;9.068;2024-02-15T13:07:52;18.80;99.90
4874;DHT22;2451;49.970;9.068;2024-02-15T13:10:18;18.60;99.90
4874;DHT22;2451;49.970;9.068;2024-02-15T13:12:45;18.60;99.90
4874;DHT22;2451;49.970;9.068;2024-02-15T13:15:15;18.50;99.90
4874;DHT22;2451;49.970;9.068;2024-02-15T13:17:46;18.50;99.90
4874;DHT22;2451;49.970;9.068;2024-02-15T13:20:14;18.70;99.90
4874;DHT22;2451;49.970;9.068;2024-02-15T13:22:43;19.10;99.90
4874;DHT22;2451;49.970;9.068;2024-02-15T13:25:09;19.30;99.90
4874;DHT22;2451;49.970;9.068;2024-02-15T13:27:36;19.40;99.90
4874;DHT22;2451;49.970;9.068;2024-02-15T13:30:04;19.40;99.90
4874;DHT22;2451;49.970;9.068;2024-02-15T13:32:35;19.30;99.90
4874;DHT22;2451;49.970;9.068;2024-02-15T13:35:02;19.20;99.90
4874;DHT22;2451;49.970;9.068;2024-02-15T13:37:33;19.10;99.90
4874;DHT22;2451;49.970;9.068;2024-02-15T13:39:58;18.90;99.90
4874;DHT22;2451;49.970;9.068;2024-02-15T13:42:24;18.80;99.90
4874;DHT22;2451;49.970;9.068;2024-02-15T13:44:49;18.80;99.90
4874;DHT22;2451;49.970;9.068;2024-02-15T13:47:15;18.80;99.90
4874;DHT22;2451;49.970;9.068;2024-02-15T13:49:42;18.80;99.90
4874;DHT22;2451;49.970;9.068;2024-02-15T13:52:07;18.70;99.90
4874;DHT22;2451;49.970;9.068;2024-02-15T13:54:36;18.70;99.90
4874;DHT22;2451;49.970;9.068;2024-02-15T13:57:01;18.70;99.90
4874;DHT22;2451;49.970;9.068;2024-02-15T13:59:28;18.70;99.90
4874;DHT22;2451;49.970;9.068;2024-02-15T14:01:55;18.70;99.90
4874;DHT22;2451;49.970;9.068;2024-02-15T14:04:20;18.70;99.90
4874;DHT22;2451;49.970;9.068;2024-02-15T14:06:47;18.70;99.90
4874;DHT22;2451;49.970;9.068;2024-02-15T14:09:12;18.60;99.90
4874;DHT22;2451;49.970;9.068;2024-02-15T14:11:39;18.60;99.90
4874;DHT22;2451;49.970;9.068;2024-02-15T14:14:05;18.50;99.90
4874;DHT22;2451;49.970;9.068;2024-02-15T14:16:31;18.30;99.90
4874;DHT22;2451;49.970;9.068;2024-02-15T14:18:57;18.10;99.90
4874;DHT22;2451;49.970;9.068;2024-02-15T14:21:23;17.90;99.90
4874;DHT22;2451;49.970;9.068;2024-02-15T14:23:48;17.80;99.90
4874;DHT22;2451;49.970;9.068;2024-02-15T14:26:15;17.70;99.90
4874;DHT22;2451;49.970;9.068;2024-02-15T14:28:41;17.50;99.90
4874;DHT22;2451;49.970;9.068;2024-02-15T14:31:07;17.40;99.90
4874;DHT22;2451;49.970;9.068;2024-02-15T14:33:51;17.30;99.90
4874;DHT22;2451;49.970;9.068;2024-02-15T14:36:17;17.20;99.90
4874;DHT22;2451;49.970;9.068;2024-02-15T14:38:45;17.10;99.90
4874;DHT22;2451;49.970;9.068;2024-02-15T14:41:13;17.00;99.90
4874;DHT22;2451;49.970;9.068;2024-02-15T14:43:40;17.00;99.90
4874;DHT22;2451;49.970;9.068;2024-02-15T14:46:05;16.90;99.90
4874;DHT22;2451;49.970;9.068;2024-02-15T14:48:33;16.90;99.90
4874;DHT22;2451;49.970;9.068;2024-02-15T14:50:59;16.80;99.90
4874;DHT22;2451;49.970;9.068;2024-02-15T14:53:26;16.80;99.90
4874;DHT22;2451;49.970;9.068;2024-02-15T14:55:53;16.80;99.90
4874;DHT22;2451;49.970;9.068;2024-02-15T14:58:19;16.70;99.90
4874;DHT22;2451;49.970;9.068;2024-02-15T15:00:45;16.70;99.90
4874;DHT22;2451;49.970;9.068;2024-02-15T15:03:12;16.60;99.90
4874;DHT22;2451;49.970;9.068;2024-02-15T15:05:39;16.50;99.90
4874;DHT22;2451;49.970;9.068;2024-02-15T15:08:23;16.50;99.90
4874;DHT22;2451;49.970;9.068;2024-02-15T15:11:07;16.40;99.90
4874;DHT22;2451;49.970;9.068;2024-02-15T15:13:51;16.30;99.90
4874;DHT22;2451;49.970;9.068;2024-02-15T15:16:17;16.30;99.90
4874;DHT22;2451;49.970;9.068;2024-02-15T15:18:47;16.20;99.90
4874;DHT22;2451;49.970;9.068;2024-02-15T15:21:13;16.20;99.90
4874;DHT22;2451;49.970;9.068;2024-02-15T15:23:39;16.10;99.90
4874;DHT22;2451;49.970;9.068;2024-02-15T15:26:05;16.00;99.90
4874;DHT22;2451;49.970;9.068;2024-02-15T15:28:31;16.00;99.90
4874;DHT22;2451;49.970;9.068;2024-02-15T15:30:57;15.90;99.90
4874;DHT22;2451;49.970;9.068;2024-02-15T15:33:23;15.90;99.90
4874;DHT22;2451;49.970;9.068;2024-02-15T15:35:49;15.90;99.90
4874;DHT22;2451;49.970;9.068;2024-02-15T15:38:15;15.80;99.90
4874;DHT22;2451;49.970;9.068;2024-02-15T15:40:41;15.80;99.90
4874;DHT22;2451;49.970;9.068;2024-02-15T15:43:10;15.80;99.90
4874;DHT22;2451;49.970;9.068;2024-02-15T15:45:36;15.80;99.90
4874;DHT22;2451;49.970;9.068;2024-02-15T15:48:01;15.70;99.90
4874;DHT22;2451;49.970;9.068;2024-02-15T15:50:29;15.70;99.90
4874;DHT22;2451;49.970;9.068;2024-02-15T15:53:01;15.70;99.90
4874;DHT22;2451;49.970;9.068;2024-02-15T15:55:27;15.70;99.90
4874;DHT22;2451;49.970;9.068;2024-02-15T15:57:52;15.60;99.90
4874;DHT22;2451;49.970;9.068;2024-02-15T16:00:18;15.70;99.90
4874;DHT22;2451;49.970;9.068;2024-02-15T16:02:45;15.60;99.90
4874;DHT22;2451;49.970;9.068;2024-02-15T16:05:14;15.60;99.90
4874;DHT22;2451;49.970;9.068;2024-02-15T16:07:42;15.60;99.90
4874;DHT22;2451;49.970;9.068;2024-02-15T16:10:08;15.50;99.90
4874;DHT22;2451;49.970;9.068;2024-02-15T16:12:37;15.50;99.90
4874;DHT22;2451;49.970;9.068;2024-02-15T16:15:04;15.40;99.90
4874;DHT22;2451;49.970;9.068;2024-02-15T16:17:38;15.30;99.90
4874;DHT22;2451;49.970;9.068;2024-02-15T16:20:05;15.20;99.90